EPKK/KRK METAR and TAF weather

Enter ICAO airport designator
Station Type Date Time Source
EPKK METAR 2024/07/24 13:00 UTC NOAA

EPKK 241300Z 24003KT 200V280 9999 FEW046 19/15 Q1014


Station Type Date Time Source
EPKK Decoded METAR 2024/07/24 13:00 UTC NOAA

Krakow, Poland (EPKK) 50-05N 019-48E 237M
Jul 24, 2024 - 09:00 AM EDT / 2024.07.24 1300 UTC
Wind: from the WSW (240 degrees) at 3 MPH (3 KT) (direction variable):0
Visibility: greater than 7 mile(s):0
Sky conditions: mostly clear
Temperature: 66 F (19 C)
Dew Point: 59 F (15 C)
Relative Humidity: 77%
Pressure (altimeter): 29.94 in. Hg (1014 hPa)
ob: EPKK 241300Z 24003KT 200V280 9999 FEW046 19/15 Q1014
cycle: 13

Station Type Date Time Source
EPKK TAF 2024/07/24 12:33 UTC NOAA